Time;durP1;ratioP1;P1;durP2;ratioP2;P2;SDS_P1;SDS_P2;PMS_P1;PMS_P2;Temp;Humidity;BMP_temperature;BMP_pressure;BME280_temperature;BME280_humidity;BME280_pressure;Samples;Min_cycle;Max_cycle;Signal;HPM_P1;HPM_P2
2021/07/25 00:00:44;;;;;;;11.00;9.90;;;19.10;99.90;;;;;;5085038;28;20572;-82
2021/07/25 00:03:13;;;;;;;10.63;9.57;;;19.10;99.90;;;;;;5083884;28;21028;-82
2021/07/25 00:05:41;;;;;;;11.00;9.60;;;19.10;99.90;;;;;;5084701;28;20443;-82
2021/07/25 00:08:12;;;;;;;9.27;8.37;;;19.10;99.90;;;;;;5087008;28;20489;-84
2021/07/25 00:10:42;;;;;;;9.33;8.53;;;19.10;99.90;;;;;;5098395;28;20414;-82
2021/07/25 00:13:10;;;;;;;11.10;8.73;;;19.10;99.90;;;;;;5096346;28;20455;-83
2021/07/25 00:15:38;;;;;;;9.87;8.87;;;19.10;99.90;;;;;;5085947;28;20455;-83
2021/07/25 00:18:05;;;;;;;9.80;8.83;;;19.10;99.90;;;;;;5087152;28;20455;-83
2021/07/25 00:20:32;;;;;;;12.00;9.10;;;19.10;99.90;;;;;;5089355;28;20977;-81
2021/07/25 00:23:00;;;;;;;11.90;9.00;;;19.10;99.90;;;;;;5094153;28;20481;-81
2021/07/25 00:25:27;;;;;;;12.77;9.57;;;19.10;99.90;;;;;;5093007;28;20455;-82
2021/07/25 00:27:56;;;;;;;15.10;8.90;;;19.00;99.90;;;;;;5083833;28;20455;-82
2021/07/25 00:30:24;;;;;;;10.20;9.20;;;19.00;99.90;;;;;;5084584;28;20531;-82
2021/07/25 00:32:52;;;;;;;10.20;9.20;;;19.00;99.90;;;;;;5084715;28;20450;-82
2021/07/25 00:35:19;;;;;;;11.23;9.70;;;19.00;99.90;;;;;;5083501;28;20541;-82
2021/07/25 00:37:47;;;;;;;9.23;8.40;;;19.00;99.90;;;;;;5085497;28;20414;-80
2021/07/25 00:40:22;;;;;;;12.00;8.90;;;19.00;99.90;;;;;;5088115;28;20460;-82
2021/07/25 00:42:49;;;;;;;11.40;9.20;;;19.00;99.90;;;;;;5083179;28;20462;-82
2021/07/25 00:45:18;;;;;;;10.67;9.67;;;19.00;99.90;;;;;;5083951;28;20450;-80
2021/07/25 00:47:46;;;;;;;12.10;9.33;;;19.10;99.90;;;;;;5084466;28;20485;-80
2021/07/25 00:50:14;;;;;;;9.20;8.30;;;19.10;99.90;;;;;;5084265;28;20850;-81
2021/07/25 00:52:41;;;;;;;10.40;9.40;;;19.10;99.90;;;;;;5083411;28;20493;-82
2021/07/25 00:55:09;;;;;;;10.93;9.03;;;19.10;99.90;;;;;;5085904;28;20568;-81
2021/07/25 00:57:37;;;;;;;10.13;9.23;;;19.10;99.90;;;;;;5085563;28;20455;-81
2021/07/25 01:00:06;;;;;;;13.13;9.57;;;19.10;99.90;;;;;;5191548;22;20489;-83
2021/07/25 01:02:42;;;;;;;10.23;9.30;;;19.10;99.90;;;;;;5112608;28;20903;-83
2021/07/25 01:05:20;;;;;;;11.40;10.03;;;19.10;99.90;;;;;;5113795;28;20435;-82
2021/07/25 01:07:55;;;;;;;10.40;9.33;;;19.10;99.90;;;;;;5157367;22;20505;-81
2021/07/25 01:10:28;;;;;;;11.27;8.90;;;19.10;99.90;;;;;;5136671;28;20491;-80
2021/07/25 01:12:57;;;;;;;10.70;9.70;;;19.10;99.90;;;;;;5136002;28;20520;-82
2021/07/25 01:15:27;;;;;;;10.30;9.17;;;19.10;99.90;;;;;;5129419;28;20489;-82
2021/07/25 01:17:58;;;;;;;10.63;9.07;;;19.10;99.90;;;;;;5128620;28;20473;-82
2021/07/25 01:20:27;;;;;;;10.40;9.40;;;19.10;99.90;;;;;;5130144;28;20533;-82
2021/07/25 01:22:57;;;;;;;10.90;9.80;;;19.10;99.90;;;;;;5133202;28;20446;-80
2021/07/25 01:25:27;;;;;;;10.30;9.33;;;19.10;99.90;;;;;;5132553;28;20417;-82
2021/07/25 01:27:59;;;;;;;10.07;9.17;;;19.20;99.90;;;;;;5128328;28;20899;-82
2021/07/25 01:30:32;;;;;;;9.37;8.57;;;19.20;99.90;;;;;;5128015;28;20474;-82
2021/07/25 01:33:04;;;;;;;17.17;9.47;;;19.20;99.90;;;;;;5130412;28;20441;-83
2021/07/25 01:35:34;;;;;;;10.00;9.00;;;19.20;99.90;;;;;;5128959;28;20470;-82
2021/07/25 01:38:01;;;;;;;9.87;8.87;;;19.20;99.90;;;;;;5126728;28;20465;-81
2021/07/25 01:40:28;;;;;;;9.97;8.97;;;19.20;99.90;;;;;;5128138;28;20432;-83
2021/07/25 01:42:56;;;;;;;10.03;9.00;;;19.20;99.90;;;;;;5127495;28;20517;-82
2021/07/25 01:45:23;;;;;;;9.23;8.43;;;19.20;99.90;;;;;;5129233;28;20460;-81
2021/07/25 01:47:51;;;;;;;9.70;8.70;;;19.10;99.90;;;;;;5128727;28;20438;-82
2021/07/25 01:50:18;;;;;;;9.67;8.60;;;19.10;99.90;;;;;;5128577;28;20481;-82
2021/07/25 01:52:46;;;;;;;11.00;8.60;;;19.20;99.90;;;;;;5127059;28;20531;-82
2021/07/25 01:55:14;;;;;;;9.53;8.10;;;19.20;99.90;;;;;;5131409;28;20489;-82
2021/07/25 01:57:41;;;;;;;9.50;8.50;;;19.30;99.90;;;;;;5128549;28;20822;-81
2021/07/25 02:00:09;;;;;;;9.60;8.70;;;19.20;99.90;;;;;;5130160;28;20500;-82
2021/07/25 02:02:36;;;;;;;10.20;8.80;;;19.20;99.90;;;;;;5127583;28;20889;-83
2021/07/25 02:05:05;;;;;;;11.20;8.80;;;19.20;99.90;;;;;;5128616;28;20421;-81
2021/07/25 02:07:32;;;;;;;11.20;9.13;;;19.20;99.90;;;;;;5128299;28;20480;-83
2021/07/25 02:10:00;;;;;;;13.80;8.60;;;19.20;99.90;;;;;;5129217;28;20448;-82
2021/07/25 02:12:27;;;;;;;11.67;9.80;;;19.20;99.90;;;;;;5128065;28;20460;-81
2021/07/25 02:14:54;;;;;;;8.80;7.87;;;19.20;99.90;;;;;;5131153;28;20480;-82
2021/07/25 02:17:21;;;;;;;10.80;8.67;;;19.20;99.90;;;;;;5139185;28;20437;-82
2021/07/25 02:19:48;;;;;;;9.23;8.33;;;19.30;99.90;;;;;;5138753;28;20726;-83
2021/07/25 02:22:16;;;;;;;9.00;8.10;;;19.30;99.90;;;;;;5138663;28;20408;-81
2021/07/25 02:24:45;;;;;;;9.47;8.57;;;19.30;99.90;;;;;;5166043;22;20478;-83
2021/07/25 02:27:14;;;;;;;9.70;8.70;;;19.30;99.90;;;;;;5135814;28;20446;-82
2021/07/25 02:29:41;;;;;;;9.47;8.47;;;19.30;99.90;;;;;;5127358;28;20494;-83
2021/07/25 02:32:08;;;;;;;9.30;8.40;;;19.30;99.90;;;;;;5133653;28;20408;-82
2021/07/25 02:34:36;;;;;;;9.47;8.53;;;19.30;99.90;;;;;;5141567;28;20492;-82
2021/07/25 02:37:04;;;;;;;9.80;8.93;;;19.30;99.90;;;;;;5141859;28;20470;-81
2021/07/25 02:39:31;;;;;;;10.50;9.43;;;19.40;99.90;;;;;;5138856;28;20465;-81
2021/07/25 02:41:58;;;;;;;12.20;7.63;;;19.40;99.90;;;;;;5127598;28;20552;-82
2021/07/25 02:44:26;;;;;;;10.07;8.30;;;19.40;99.90;;;;;;5136766;28;20432;-81
2021/07/25 02:46:53;;;;;;;9.93;8.83;;;19.40;99.90;;;;;;5136878;28;20431;-80
2021/07/25 02:49:21;;;;;;;8.90;8.10;;;19.40;99.90;;;;;;5137064;28;20641;-82
2021/07/25 02:51:48;;;;;;;12.17;8.77;;;19.40;99.90;;;;;;5127447;28;20463;-81
2021/07/25 02:54:15;;;;;;;14.43;9.20;;;19.40;99.90;;;;;;5127687;28;20517;-82
2021/07/25 02:56:42;;;;;;;10.27;9.13;;;19.40;99.90;;;;;;5129694;28;20430;-85
2021/07/25 03:01:48;;;;;;;9.97;8.97;;;19.40;99.90;;;;;;5234518;22;20469;-83
2021/07/25 03:04:15;;;;;;;10.00;9.00;;;19.40;99.90;;;;;;5098770;28;20444;-82
2021/07/25 03:06:42;;;;;;;10.37;9.37;;;19.40;99.90;;;;;;5100691;28;20428;-82
2021/07/25 03:09:10;;;;;;;9.80;8.90;;;19.50;99.90;;;;;;5100707;28;20476;-83
2021/07/25 03:11:39;;;;;;;10.27;9.27;;;19.50;99.90;;;;;;5100869;28;20447;-85
2021/07/25 03:14:06;;;;;;;10.20;9.17;;;19.50;99.90;;;;;;5095533;28;20444;-81
2021/07/25 03:16:33;;;;;;;10.73;9.70;;;19.50;99.90;;;;;;5101037;28;20462;-82
2021/07/25 03:19:02;;;;;;;10.80;9.80;;;19.50;99.90;;;;;;5101103;28;20471;-81
2021/07/25 03:21:34;;;;;;;9.90;8.87;;;19.50;99.90;;;;;;5221985;22;20483;-82
2021/07/25 03:24:01;;;;;;;9.73;8.80;;;19.50;99.90;;;;;;5100520;28;20444;-82
2021/07/25 03:26:28;;;;;;;12.80;10.07;;;19.60;99.90;;;;;;5100565;28;20436;-81
2021/07/25 03:28:55;;;;;;;10.07;9.07;;;19.60;99.90;;;;;;5100078;28;20446;-83
2021/07/25 03:31:22;;;;;;;10.13;9.20;;;19.60;99.90;;;;;;5098970;28;20440;-81
2021/07/25 03:33:49;;;;;;;10.50;8.67;;;19.70;99.90;;;;;;5089253;28;20414;-81
2021/07/25 03:36:17;;;;;;;11.63;9.30;;;19.70;99.90;;;;;;5089970;28;20554;-81
2021/07/25 03:38:44;;;;;;;11.17;9.13;;;19.60;99.90;;;;;;5091559;28;20486;-82
2021/07/25 03:41:11;;;;;;;13.60;10.13;;;19.60;99.90;;;;;;5154899;22;21793;-84
2021/07/25 03:43:38;;;;;;;12.10;10.87;;;19.60;99.90;;;;;;5099624;28;20443;-82
2021/07/25 03:46:05;;;;;;;11.10;9.67;;;19.60;99.90;;;;;;5090355;28;20417;-83
2021/07/25 03:48:32;;;;;;;11.37;10.17;;;19.60;99.90;;;;;;5100182;28;20790;-82
2021/07/25 03:50:59;;;;;;;12.17;9.67;;;19.60;99.90;;;;;;5098768;28;20467;-82
2021/07/25 03:53:35;;;;;;;10.70;9.70;;;19.60;99.90;;;;;;5089439;28;20452;-81
2021/07/25 03:56:02;;;;;;;10.60;9.57;;;19.60;99.90;;;;;;5088406;28;20503;-81
2021/07/25 03:58:29;;;;;;;11.50;10.20;;;19.50;99.90;;;;;;5079840;28;20467;-82
2021/07/25 04:00:56;;;;;;;12.53;9.70;;;19.60;99.90;;;;;;5083091;28;20475;-81
2021/07/25 04:03:24;;;;;;;12.40;10.57;;;19.60;99.90;;;;;;5083224;28;20452;-82
2021/07/25 04:05:53;;;;;;;10.73;9.83;;;19.50;99.90;;;;;;5084575;28;20411;-82
2021/07/25 04:08:19;;;;;;;11.33;10.13;;;19.50;99.90;;;;;;5078740;28;20573;-82
2021/07/25 04:10:48;;;;;;;10.40;9.40;;;19.50;99.90;;;;;;5078361;28;20508;-81
2021/07/25 04:13:15;;;;;;;15.33;9.97;;;19.50;99.90;;;;;;5080353;28;20530;-81
2021/07/25 04:15:44;;;;;;;11.03;9.90;;;19.50;99.90;;;;;;5079774;28;20583;-82
2021/07/25 04:18:11;;;;;;;11.77;9.87;;;19.50;99.90;;;;;;5080211;28;20474;-81
2021/07/25 04:20:38;;;;;;;10.70;9.70;;;19.50;99.90;;;;;;5079799;28;20501;-81
2021/07/25 04:23:05;;;;;;;9.83;8.77;;;19.50;99.90;;;;;;5078946;28;20463;-81
2021/07/25 04:25:33;;;;;;;10.07;9.10;;;19.50;99.90;;;;;;5091187;28;20440;-82
2021/07/25 04:28:03;;;;;;;15.40;9.60;;;19.60;99.90;;;;;;5090476;28;20444;-80
2021/07/25 04:30:32;;;;;;;11.23;9.10;;;19.60;99.90;;;;;;5091481;28;20472;-80
2021/07/25 04:33:00;;;;;;;12.23;10.63;;;19.60;99.90;;;;;;5089165;28;20452;-81
2021/07/25 04:35:28;;;;;;;12.90;10.43;;;19.60;99.90;;;;;;5089020;28;20991;-81
2021/07/25 04:37:55;;;;;;;11.53;9.80;;;19.60;99.90;;;;;;5085095;28;20458;-80
2021/07/25 04:40:24;;;;;;;13.80;9.40;;;19.70;99.90;;;;;;5080960;28;20905;-81
2021/07/25 04:42:54;;;;;;;11.10;9.90;;;19.60;99.90;;;;;;5082234;28;20459;-81
2021/07/25 04:45:29;;;;;;;10.07;9.13;;;19.70;99.90;;;;;;5081046;28;20932;-83
2021/07/25 04:48:07;;;;;;;10.73;9.70;;;19.70;99.90;;;;;;5086135;28;20476;-82
2021/07/25 04:50:38;;;;;;;12.10;10.80;;;19.70;99.90;;;;;;5078191;28;20464;-82
2021/07/25 04:53:06;;;;;;;16.10;10.87;;;19.70;99.90;;;;;;5079780;28;20434;-84
2021/07/25 04:55:35;;;;;;;12.27;10.33;;;19.70;99.90;;;;;;5080523;28;20501;-81
2021/07/25 04:58:05;;;;;;;10.70;9.60;;;19.70;99.90;;;;;;5080462;28;20455;-81
2021/07/25 05:00:40;;;;;;;11.07;9.97;;;19.70;99.90;;;;;;5079935;28;20472;-80
2021/07/25 05:03:07;;;;;;;10.77;9.67;;;19.70;99.90;;;;;;5081080;28;20444;-81
2021/07/25 05:05:35;;;;;;;10.77;9.77;;;19.80;99.90;;;;;;5077515;28;20534;-81
2021/07/25 05:08:06;;;;;;;10.93;9.83;;;19.80;99.90;;;;;;5080531;28;20456;-82
2021/07/25 05:10:34;;;;;;;13.77;9.83;;;19.80;99.90;;;;;;5099306;22;20466;-81
2021/07/25 05:13:11;;;;;;;11.40;10.20;;;19.80;99.90;;;;;;5077671;28;21020;-81
2021/07/25 05:15:44;;;;;;;11.57;10.50;;;19.80;99.90;;;;;;5079415;28;20502;-82
2021/07/25 05:18:18;;;;;;;13.00;10.30;;;19.90;99.90;;;;;;5081411;28;20997;-81
2021/07/25 05:20:52;;;;;;;12.40;10.87;;;19.90;99.90;;;;;;5080506;28;20499;-81
2021/07/25 05:23:30;;;;;;;10.10;9.10;;;19.90;99.90;;;;;;5081433;28;20486;-81
2021/07/25 05:25:58;;;;;;;9.60;8.80;;;19.90;99.90;;;;;;5081221;28;20514;-81
2021/07/25 05:28:28;;;;;;;12.43;9.40;;;20.00;99.90;;;;;;5081493;28;20436;-83
2021/07/25 05:30:57;;;;;;;10.70;9.60;;;20.10;99.90;;;;;;5356912;22;20487;-84
2021/07/25 05:33:25;;;;;;;11.60;9.30;;;20.10;99.90;;;;;;5090422;28;20424;-81
2021/07/25 05:35:52;;;;;;;11.03;9.83;;;20.20;99.90;;;;;;5111115;22;20472;-87
2021/07/25 05:38:20;;;;;;;9.93;8.93;;;20.20;99.90;;;;;;5098668;28;20428;-82
2021/07/25 05:40:48;;;;;;;12.33;10.00;;;20.20;99.90;;;;;;5088232;28;20542;-82
2021/07/25 05:43:15;;;;;;;10.33;9.23;;;20.30;99.90;;;;;;5086490;28;20554;-82
2021/07/25 05:45:42;;;;;;;11.33;10.23;;;20.50;99.90;;;;;;5082940;28;20536;-82
2021/07/25 05:48:11;;;;;;;11.93;9.20;;;20.60;99.30;;;;;;5082361;28;20462;-80
2021/07/25 05:50:38;;;;;;;9.73;8.73;;;20.60;98.40;;;;;;5082836;28;20963;-81
2021/07/25 05:53:05;;;;;;;9.87;8.87;;;20.80;97.50;;;;;;5090798;28;20947;-83
2021/07/25 05:55:33;;;;;;;13.03;9.60;;;20.80;96.20;;;;;;5090458;28;20460;-85
2021/07/25 05:58:01;;;;;;;12.13;9.23;;;20.90;95.80;;;;;;5094102;28;20458;-82
2021/07/25 06:00:28;;;;;;;11.10;8.20;;;21.40;94.40;;;;;;5089923;28;20489;-82
2021/07/25 06:02:57;;;;;;;9.20;8.20;;;22.00;88.40;;;;;;5093113;28;20468;-81
2021/07/25 06:05:26;;;;;;;10.23;7.80;;;22.00;87.30;;;;;;5091800;28;20444;-84
2021/07/25 06:07:54;;;;;;;10.30;7.87;;;22.30;84.90;;;;;;5089131;28;20494;-81
2021/07/25 06:10:23;;;;;;;8.10;7.33;;;22.50;80.20;;;;;;5083870;28;20474;-80
2021/07/25 06:12:52;;;;;;;9.53;8.07;;;22.20;81.10;;;;;;5078119;28;20442;-79
2021/07/25 06:15:19;;;;;;;10.63;7.13;;;21.90;85.00;;;;;;5078953;28;20464;-81
2021/07/25 06:17:46;;;;;;;7.50;6.77;;;22.00;85.30;;;;;;5078095;28;20493;-81
2021/07/25 06:20:13;;;;;;;7.50;6.80;;;22.70;81.30;;;;;;5078486;28;21050;-82
2021/07/25 06:22:43;;;;;;;8.07;7.20;;;23.30;74.80;;;;;;5079771;28;20542;-81
2021/07/25 06:25:12;;;;;;;6.43;5.83;;;23.70;71.20;;;;;;5078937;28;20519;-81
2021/07/25 06:27:39;;;;;;;6.83;6.03;;;23.90;71.30;;;;;;5078028;28;20497;-82
2021/07/25 06:30:09;;;;;;;9.40;6.80;;;24.30;68.10;;;;;;5078085;28;20511;-81
2021/07/25 06:32:57;;;;;;;8.30;6.23;;;24.70;66.50;;;;;;5078594;28;20846;-82
2021/07/25 06:35:26;;;;;;;9.43;6.03;;;25.10;63.20;;;;;;5088466;28;20437;-86
2021/07/25 06:37:55;;;;;;;9.07;5.87;;;25.50;62.30;;;;;;5096727;28;20472;-80
2021/07/25 06:40:22;;;;;;;7.73;5.73;;;25.50;61.20;;;;;;5095196;28;20474;-86
2021/07/25 06:42:50;;;;;;;7.87;5.33;;;25.50;61.60;;;;;;5097616;28;20426;-84
2021/07/25 06:45:17;;;;;;;10.40;6.10;;;25.60;60.30;;;;;;5095895;28;20425;-84
2021/07/25 06:47:47;;;;;;;6.03;5.30;;;25.80;59.30;;;;;;5086013;28;20799;-80
2021/07/25 06:50:14;;;;;;;7.40;5.30;;;26.00;58.60;;;;;;5088516;28;20499;-81
2021/07/25 06:52:41;;;;;;;5.90;5.30;;;26.00;56.20;;;;;;5088562;28;20750;-80
2021/07/25 06:55:11;;;;;;;5.70;5.20;;;26.10;55.60;;;;;;5089868;28;20429;-80
2021/07/25 06:57:39;;;;;;;6.33;5.37;;;26.10;57.00;;;;;;5091087;28;20479;-79
2021/07/25 07:00:07;;;;;;;7.50;5.77;;;25.90;56.30;;;;;;5092356;28;20514;-79
2021/07/25 07:02:50;;;;;;;8.10;5.40;;;25.20;57.90;;;;;;5094681;28;20411;-77
2021/07/25 07:05:18;;;;;;;5.00;4.50;;;24.80;59.40;;;;;;5093570;28;20452;-77
2021/07/25 07:07:47;;;;;;;6.33;5.73;;;24.70;60.70;;;;;;5096871;28;20433;-78
2021/07/25 07:10:16;;;;;;;8.70;5.90;;;24.80;60.30;;;;;;5096666;28;20498;-78
2021/07/25 07:12:43;;;;;;;5.33;4.90;;;24.90;60.50;;;;;;5096259;28;20449;-77
2021/07/25 07:15:18;;;;;;;5.60;5.10;;;24.90;59.60;;;;;;5096739;28;20443;-78
2021/07/25 07:17:45;;;;;;;6.67;5.17;;;24.50;61.40;;;;;;5095307;28;20990;-82
2021/07/25 07:20:13;;;;;;;6.27;5.73;;;23.80;62.60;;;;;;5096237;28;20471;-84
2021/07/25 07:22:40;;;;;;;8.20;5.90;;;23.30;66.50;;;;;;5098512;28;20465;-82
2021/07/25 07:25:08;;;;;;;6.77;6.17;;;22.90;70.40;;;;;;5098940;28;20459;-81
2021/07/25 07:27:37;;;;;;;8.17;5.33;;;22.90;70.40;;;;;;5097834;28;20490;-81
2021/07/25 07:30:05;;;;;;;7.93;6.07;;;23.00;70.50;;;;;;5091653;28;20476;-81
2021/07/25 07:32:32;;;;;;;6.50;5.67;;;22.90;70.40;;;;;;5092723;28;20463;-81
2021/07/25 07:34:59;;;;;;;6.27;5.30;;;23.00;70.50;;;;;;5088228;28;20451;-81
2021/07/25 07:37:26;;;;;;;6.10;5.43;;;23.10;70.60;;;;;;5091052;28;20488;-82
2021/07/25 07:39:53;;;;;;;5.03;4.63;;;23.50;68.10;;;;;;5085341;28;20505;-82
2021/07/25 07:42:20;;;;;;;9.13;4.90;;;23.70;65.20;;;;;;5086591;28;20426;-82
2021/07/25 07:44:49;;;;;;;6.50;4.93;;;23.90;63.20;;;;;;5087517;28;20450;-81
2021/07/25 07:47:16;;;;;;;6.00;4.20;;;24.00;60.10;;;;;;5092321;28;20452;-82
2021/07/25 07:49:43;;;;;;;5.83;3.80;;;24.40;57.90;;;;;;5098372;28;20486;-81
2021/07/25 07:52:12;;;;;;;5.07;4.60;;;24.50;54.70;;;;;;5099272;28;20418;-83
2021/07/25 07:54:39;;;;;;;4.27;3.87;;;24.50;55.30;;;;;;5095261;28;20452;-82
2021/07/25 07:57:06;;;;;;;5.13;4.43;;;24.20;55.10;;;;;;5100246;28;20491;-83
2021/07/25 07:59:35;;;;;;;4.37;3.97;;;24.10;56.30;;;;;;5091129;28;20470;-82
2021/07/25 08:02:05;;;;;;;4.97;3.67;;;24.00;52.60;;;;;;5097504;28;20452;-82
2021/07/25 08:04:32;;;;;;;4.10;3.70;;;23.80;55.10;;;;;;5086318;28;20437;-82
2021/07/25 08:06:58;;;;;;;4.13;3.67;;;23.70;54.40;;;;;;5087879;28;20542;-82
2021/07/25 08:09:25;;;;;;;4.53;4.17;;;23.70;55.70;;;;;;5089146;28;20463;-81
2021/07/25 08:11:53;;;;;;;4.40;4.00;;;23.90;53.40;;;;;;5083910;28;20492;-83
2021/07/25 08:14:21;;;;;;;6.23;4.40;;;24.00;53.40;;;;;;5082735;28;20486;-81
2021/07/25 08:16:48;;;;;;;4.50;3.90;;;24.00;54.70;;;;;;5082518;28;21022;-82
2021/07/25 08:19:16;;;;;;;5.60;4.03;;;24.20;54.20;;;;;;5084213;28;20575;-82
2021/07/25 08:21:44;;;;;;;6.07;3.83;;;24.20;52.80;;;;;;5084773;28;21030;-81
2021/07/25 08:24:11;;;;;;;4.60;3.83;;;24.20;54.10;;;;;;5085508;28;20460;-81
2021/07/25 08:26:39;;;;;;;4.60;3.70;;;24.10;55.00;;;;;;5094353;28;20452;-82
2021/07/25 08:29:06;;;;;;;3.83;3.40;;;24.10;54.70;;;;;;5088200;28;20808;-82
2021/07/25 08:31:33;;;;;;;5.70;3.90;;;24.40;54.10;;;;;;5083914;28;20486;-81
2021/07/25 08:34:00;;;;;;;4.40;4.00;;;24.40;53.50;;;;;;5083052;28;20931;-81
2021/07/25 08:36:29;;;;;;;4.37;3.97;;;24.50;53.70;;;;;;5091510;28;20847;-81
2021/07/25 08:38:56;;;;;;;5.57;5.07;;;24.60;54.50;;;;;;5093617;28;20487;-82
2021/07/25 08:41:36;;;;;;;5.30;4.30;;;24.50;55.40;;;;;;5093611;28;20466;-81
2021/07/25 08:44:31;;;;;;;4.60;4.07;;;25.00;53.50;;;;;;5092159;28;20445;-83
2021/07/25 08:46:58;;;;;;;4.13;3.73;;;25.30;51.60;;;;;;5061716;28;20433;-82
2021/07/25 08:49:36;;;;;;;5.30;4.77;;;25.60;49.90;;;;;;5082811;28;20505;-82
2021/07/25 08:52:06;;;;;;;4.63;3.90;;;25.80;49.10;;;;;;5083237;28;20445;-82
2021/07/25 08:54:34;;;;;;;4.47;3.60;;;25.80;46.20;;;;;;5082718;28;20462;-82
2021/07/25 08:57:01;;;;;;;4.70;4.30;;;25.70;46.40;;;;;;5082799;28;20517;-82
2021/07/25 08:59:31;;;;;;;4.00;3.60;;;25.80;47.20;;;;;;5082209;28;20497;-83
2021/07/25 09:02:01;;;;;;;6.53;4.60;;;25.90;46.20;;;;;;5080750;28;20542;-82
2021/07/25 09:04:29;;;;;;;6.87;4.20;;;26.00;44.20;;;;;;5080725;28;20516;-83
2021/07/25 09:06:59;;;;;;;5.43;4.20;;;25.90;46.60;;;;;;5080926;28;20487;-82
2021/07/25 09:09:28;;;;;;;5.20;4.40;;;26.20;47.70;;;;;;5081638;28;20452;-83
2021/07/25 09:11:56;;;;;;;5.10;4.60;;;26.40;47.80;;;;;;5084854;28;20430;-81
2021/07/25 09:14:22;;;;;;;5.73;4.27;;;26.40;46.90;;;;;;5083901;28;20467;-81
2021/07/25 09:16:49;;;;;;;4.73;4.10;;;26.40;46.90;;;;;;5083804;28;20515;-84
2021/07/25 09:19:16;;;;;;;7.07;4.07;;;26.40;47.40;;;;;;5085278;28;20483;-83
2021/07/25 09:21:45;;;;;;;4.47;3.50;;;26.30;44.40;;;;;;5083840;28;20430;-82
2021/07/25 09:24:21;;;;;;;3.93;3.60;;;26.10;44.20;;;;;;5080893;28;20447;-82
2021/07/25 09:26:55;;;;;;;4.17;3.60;;;26.00;44.20;;;;;;5081000;28;20458;-83
2021/07/25 09:29:24;;;;;;;4.23;3.50;;;26.30;44.40;;;;;;5081097;28;20520;-83
2021/07/25 09:31:51;;;;;;;7.43;3.93;;;26.60;43.20;;;;;;5097780;28;20466;-82
2021/07/25 09:34:38;;;;;;;4.80;4.30;;;26.70;43.80;;;;;;5094712;28;20485;-82
2021/07/25 09:37:13;;;;;;;5.00;3.97;;;26.60;44.60;;;;;;5096778;28;20465;-83
2021/07/25 09:39:43;;;;;;;5.37;4.10;;;26.30;45.60;;;;;;5095201;28;20468;-82
2021/07/25 09:42:12;;;;;;;4.83;4.37;;;26.20;47.80;;;;;;5094222;28;20449;-82
2021/07/25 09:44:51;;;;;;;4.87;4.37;;;26.30;46.80;;;;;;5088277;28;20426;-82
2021/07/25 09:47:29;;;;;;;4.27;3.83;;;26.60;46.00;;;;;;5083873;28;20427;-83
2021/07/25 09:49:57;;;;;;;3.63;3.37;;;26.90;44.60;;;;;;5083742;28;20479;-81
2021/07/25 09:52:31;;;;;;;4.33;3.47;;;27.20;43.00;;;;;;5083624;28;20456;-82
2021/07/25 09:54:59;;;;;;;5.50;3.90;;;27.00;44.60;;;;;;5083577;28;20483;-82
2021/07/25 09:57:29;;;;;;;4.20;3.80;;;26.90;44.10;;;;;;5084931;28;20487;-83
2021/07/25 09:59:58;;;;;;;4.60;4.10;;;26.90;44.80;;;;;;5084323;28;20570;-82
2021/07/25 10:02:33;;;;;;;3.67;3.37;;;27.00;43.70;;;;;;5088617;28;20451;-82
2021/07/25 10:05:08;;;;;;;4.77;3.53;;;27.10;43.40;;;;;;5092981;28;20460;-83
2021/07/25 10:07:35;;;;;;;4.90;4.47;;;27.30;43.70;;;;;;5097569;28;20435;-82
2021/07/25 10:10:03;;;;;;;4.27;3.80;;;27.30;43.90;;;;;;5096381;28;20468;-83
2021/07/25 10:12:33;;;;;;;5.43;3.90;;;27.10;45.00;;;;;;5096976;28;20440;-80
2021/07/25 10:15:01;;;;;;;5.30;4.37;;;27.40;44.10;;;;;;5097729;28;20435;-82
2021/07/25 10:17:33;;;;;;;3.70;3.40;;;27.10;45.00;;;;;;5096662;28;20559;-82
2021/07/25 10:20:01;;;;;;;4.50;4.10;;;26.90;44.80;;;;;;5084151;28;20495;-82
2021/07/25 10:22:31;;;;;;;4.60;3.93;;;26.00;44.20;;;;;;5084979;28;20454;-83
2021/07/25 10:25:00;;;;;;;4.20;3.87;;;25.50;45.60;;;;;;5087415;28;20465;-83
2021/07/25 10:27:27;;;;;;;3.90;3.40;;;26.00;45.80;;;;;;5084413;28;20448;-82
2021/07/25 10:29:57;;;;;;;4.80;4.33;;;26.50;44.50;;;;;;5082909;28;20817;-83
2021/07/25 10:32:24;;;;;;;3.90;3.60;;;26.60;42.50;;;;;;5084025;28;20489;-82
2021/07/25 10:34:52;;;;;;;4.97;3.67;;;26.80;40.80;;;;;;5084187;28;20458;-82
2021/07/25 10:37:20;;;;;;;9.40;3.73;;;26.80;41.60;;;;;;5086266;28;20467;-82
2021/07/25 10:39:49;;;;;;;4.70;3.50;;;26.70;41.00;;;;;;5097443;28;20463;-81
2021/07/25 10:42:22;;;;;;;3.70;3.40;;;26.60;41.50;;;;;;5097163;28;20450;-81
2021/07/25 10:44:49;;;;;;;3.93;3.40;;;26.80;40.80;;;;;;5096524;28;20451;-81
2021/07/25 10:47:24;;;;;;;3.63;3.33;;;26.70;41.80;;;;;;5095196;28;20481;-81
2021/07/25 10:50:05;;;;;;;3.90;3.50;;;26.80;40.60;;;;;;5081835;28;20505;-82
2021/07/25 10:53:05;;;;;;;3.43;3.13;;;27.10;37.10;;;;;;5084470;28;20411;-82
2021/07/25 10:55:44;;;;;;;4.07;3.70;;;26.90;38.30;;;;;;4985748;28;20481;-82
2021/07/25 10:58:13;;;;;;;3.93;3.23;;;26.90;39.00;;;;;;5073560;28;20555;-82
2021/07/25 11:00:41;;;;;;;3.77;3.20;;;26.90;37.00;;;;;;5087811;28;20466;-82
2021/07/25 11:03:12;;;;;;;3.40;2.77;;;26.30;38.30;;;;;;5091599;28;20466;-82
2021/07/25 11:06:15;;;;;;;3.67;3.37;;;26.60;37.80;;;;;;5089296;28;20459;-82
2021/07/25 11:08:44;;;;;;;4.27;3.30;;;27.00;37.70;;;;;;5095276;28;20446;-81
2021/07/25 11:11:52;;;;;;;4.30;3.47;;;27.00;37.20;;;;;;5093135;28;20427;-83
2021/07/25 11:15:04;;;;;;;4.10;3.70;;;26.50;38.70;;;;;;5091786;28;20494;-81
2021/07/25 11:17:53;;;;;;;3.53;3.23;;;26.20;41.20;;;;;;5095946;28;20486;-82
2021/07/25 11:20:54;;;;;;;4.63;3.23;;;26.80;39.50;;;;;;5098971;28;20511;-77
2021/07/25 11:23:39;;;;;;;4.17;3.67;;;26.80;38.60;;;;;;5098493;28;20458;-81
2021/07/25 11:26:35;;;;;;;3.73;3.43;;;27.00;38.70;;;;;;5097683;28;20395;-80
2021/07/25 11:29:08;;;;;;;3.60;3.30;;;26.80;39.80;;;;;;5098695;28;20482;-79
2021/07/25 11:31:53;;;;;;;3.60;3.30;;;27.50;38.20;;;;;;5099094;28;20494;-80
2021/07/25 11:34:33;;;;;;;4.83;3.70;;;27.60;38.00;;;;;;5096852;28;20418;-82
2021/07/25 11:37:04;;;;;;;3.90;3.50;;;27.80;36.30;;;;;;5134730;22;20487;-80
2021/07/25 11:39:32;;;;;;;4.00;3.60;;;27.50;37.40;;;;;;5115077;28;20428;-82
2021/07/25 11:42:04;;;;;;;4.00;3.70;;;27.90;37.30;;;;;;5115938;28;20447;-81
2021/07/25 11:44:33;;;;;;;3.80;3.50;;;27.80;38.10;;;;;;5119937;28;20442;-78
2021/07/25 11:47:02;;;;;;;3.60;3.30;;;28.00;37.90;;;;;;5120169;28;20459;-80
2021/07/25 11:49:30;;;;;;;4.20;3.87;;;27.80;37.60;;;;;;5120450;28;20440;-79
2021/07/25 11:51:59;;;;;;;3.53;3.07;;;27.50;38.30;;;;;;5119450;28;20450;-80
2021/07/25 11:54:33;;;;;;;3.13;2.87;;;28.20;36.40;;;;;;5117087;28;20421;-81
2021/07/25 11:57:05;;;;;;;6.63;4.10;;;28.60;35.70;;;;;;5115853;28;20490;-80
2021/07/25 11:59:33;;;;;;;3.90;3.50;;;28.60;35.70;;;;;;5114550;28;20475;-81
2021/07/25 12:02:00;;;;;;;4.07;3.77;;;28.70;34.60;;;;;;5104913;28;20474;-83
2021/07/25 12:04:29;;;;;;;4.40;3.43;;;28.20;35.40;;;;;;5102771;28;20418;-82
2021/07/25 12:07:15;;;;;;;3.97;3.57;;;28.00;35.30;;;;;;5105692;28;20517;-81
2021/07/25 12:09:46;;;;;;;3.03;2.73;;;28.40;34.50;;;;;;5105351;28;20451;-81
2021/07/25 12:12:16;;;;;;;4.00;3.60;;;28.80;33.70;;;;;;5103291;28;20455;-82
2021/07/25 12:14:45;;;;;;;4.83;4.17;;;29.00;32.60;;;;;;5105584;28;20498;-82
2021/07/25 12:17:12;;;;;;;3.80;3.17;;;28.30;35.50;;;;;;5108278;28;20498;-82
2021/07/25 12:19:44;;;;;;;8.00;3.50;;;28.70;33.40;;;;;;5108857;28;20459;-82
2021/07/25 12:22:14;;;;;;;5.40;3.80;;;28.80;32.80;;;;;;5105982;28;20487;-81
2021/07/25 12:24:43;;;;;;;3.53;3.23;;;28.80;34.00;;;;;;5109508;28;20473;-81
2021/07/25 12:30:13;;;;;;;4.70;3.63;;;28.40;35.50;;;;;;5140601;27;20642;-83
2021/07/25 12:32:41;;;;;;;4.40;4.00;;;29.30;33.60;;;;;;5143683;27;20426;-79
2021/07/25 12:35:22;;;;;;;4.30;3.87;;;29.60;31.90;;;;;;5148403;28;20452;-80
2021/07/25 12:37:52;;;;;;;3.47;3.17;;;29.60;32.20;;;;;;5147459;27;20449;-82
2021/07/25 12:40:34;;;;;;;4.20;3.90;;;29.20;34.30;;;;;;5164152;22;20441;-81
2021/07/25 12:43:07;;;;;;;4.43;4.10;;;28.10;35.30;;;;;;5113916;28;20478;-80
2021/07/25 12:45:53;;;;;;;5.97;4.10;;;27.20;37.70;;;;;;5112951;28;20489;-81
2021/07/25 12:48:28;;;;;;;4.60;4.23;;;27.30;37.30;;;;;;5114052;28;20500;-81
2021/07/25 12:50:58;;;;;;;4.30;3.90;;;27.00;37.20;;;;;;5114541;28;20464;-78
2021/07/25 12:53:34;;;;;;;4.97;3.90;;;26.70;38.80;;;;;;5114956;28;20418;-77
2021/07/25 12:56:02;;;;;;;5.20;4.70;;;26.80;39.00;;;;;;5115037;28;20442;-78
2021/07/25 12:58:32;;;;;;;6.40;4.73;;;27.20;38.00;;;;;;5115027;28;20511;-78
2021/07/25 13:01:17;;;;;;;4.27;3.90;;;26.80;40.00;;;;;;5114350;28;20567;-78
2021/07/25 13:03:47;;;;;;;4.90;4.40;;;26.40;41.70;;;;;;5114876;28;20420;-79